Cainhoy, South Carolina
Current Conditions -  °F | °C
As of 9:56 AM on Friday 31 Oct 2014 (Local Time) from KCHS Reporting Station
Scattered Clouds Scattered Clouds  
Wind Chill: 64°   Ceiling: Unl
Heat Index: 64°   Visibility: 10mi
Dew Point: 51°   Wind: 7mph
Humidity: 63%   Direction: 30°NNE
Pressure: 29.9"   Gusts: NA
Location:  32.9577°N, 79.8822°W
Report Text: KCHS 311356Z 03006KT 10SM FEW050 SCT120 SCT250 18/11 A2990 RMK AO2 SLP123 T01780106
Loading
Personal Weather Stations






























Interactive Weather Map
Tropical Storm Tracking
New forecast layout! Learn more

10-Day Weather Forecast

Advertisements
Track Severe Weather on mobile